Weather at Taichung Ching Chuang Kang Airport

Public forecast

Using degrees Celsius for public forecast. Weather courtesy of forecast.io.

Current aviation weather report (METAR) for Taichung Ching Chuang Kang Airport

Retrieved 2020/10/24 05:30 UTC (0 seconds ago):

RCMQ 240530Z 01014KT 9999 FEW012 BKN080 27/16 Q1011 NOSIG RMK A2987

Aviation forecast (TAF) for Taichung Ching Chuang Kang Airport

Retrieved 2020-10-24 00:21 UTC (5 hours ago):

TAF RCMQ 232300Z 2400/2424 02016KT 9999 FEW012 BKN050 TX30/2405Z TN20/2421Z BECMG 2403/2406 FEW012 SCT030 BKN080 BECMG 2410/2413 36008KT TEMPO 2418/2423 FEW010 BKN030